sensor_id;sensor_type;location;lat;lon;timestamp;temperature;humidity
39655;DHT22;25336;59.944;11.010;2024-03-25T00:02:10;5.00;75.40
39655;DHT22;25336;59.944;11.010;2024-03-25T00:04:36;5.70;75.90
39655;DHT22;25336;59.944;11.010;2024-03-25T00:07:02;4.40;75.30
39655;DHT22;25336;59.944;11.010;2024-03-25T00:09:28;4.50;75.30
39655;DHT22;25336;59.944;11.010;2024-03-25T00:11:53;4.50;75.50
39655;DHT22;25336;59.944;11.010;2024-03-25T00:14:23;4.50;75.50
39655;DHT22;25336;59.944;11.010;2024-03-25T00:16:49;4.50;75.60
39655;DHT22;25336;59.944;11.010;2024-03-25T00:19:15;5.10;75.80
39655;DHT22;25336;59.944;11.010;2024-03-25T00:21:40;4.50;75.50
39655;DHT22;25336;59.944;11.010;2024-03-25T00:24:07;4.50;75.50
39655;DHT22;25336;59.944;11.010;2024-03-25T00:26:33;4.50;75.60
39655;DHT22;25336;59.944;11.010;2024-03-25T00:28:58;4.50;75.50
39655;DHT22;25336;59.944;11.010;2024-03-25T00:31:24;4.60;75.50
39655;DHT22;25336;59.944;11.010;2024-03-25T00:33:50;4.60;75.40
39655;DHT22;25336;59.944;11.010;2024-03-25T00:36:16;4.60;75.30
39655;DHT22;25336;59.944;11.010;2024-03-25T00:38:41;4.60;75.10
39655;DHT22;25336;59.944;11.010;2024-03-25T00:41:08;4.60;75.20
39655;DHT22;25336;59.944;11.010;2024-03-25T00:43:34;4.60;75.30
39655;DHT22;25336;59.944;11.010;2024-03-25T00:45:59;4.60;75.20
39655;DHT22;25336;59.944;11.010;2024-03-25T00:48:25;5.70;75.90
39655;DHT22;25336;59.944;11.010;2024-03-25T00:50:51;5.90;76.00
39655;DHT22;25336;59.944;11.010;2024-03-25T00:53:16;4.30;75.00
39655;DHT22;25336;59.944;11.010;2024-03-25T00:55:43;4.60;75.10
39655;DHT22;25336;59.944;11.010;2024-03-25T00:58:09;4.60;75.10
39655;DHT22;25336;59.944;11.010;2024-03-25T01:00:35;4.60;75.10
39655;DHT22;25336;59.944;11.010;2024-03-25T01:03:01;4.60;75.10
39655;DHT22;25336;59.944;11.010;2024-03-25T01:05:26;5.00;76.10
39655;DHT22;25336;59.944;11.010;2024-03-25T01:07:53;4.60;75.90
39655;DHT22;25336;59.944;11.010;2024-03-25T01:10:18;4.50;75.10
39655;DHT22;25336;59.944;11.010;2024-03-25T01:12:44;4.60;75.10
39655;DHT22;25336;59.944;11.010;2024-03-25T01:15:10;4.60;75.10
39655;DHT22;25336;59.944;11.010;2024-03-25T01:17:37;4.50;75.10
39655;DHT22;25336;59.944;11.010;2024-03-25T01:20:03;5.80;75.90
39655;DHT22;25336;59.944;11.010;2024-03-25T01:22:30;4.50;75.10
39655;DHT22;25336;59.944;11.010;2024-03-25T01:24:56;4.50;75.10
39655;DHT22;25336;59.944;11.010;2024-03-25T01:27:22;4.50;74.90
39655;DHT22;25336;59.944;11.010;2024-03-25T01:29:48;4.50;74.80
39655;DHT22;25336;59.944;11.010;2024-03-25T01:32:13;4.50;74.60
39655;DHT22;25336;59.944;11.010;2024-03-25T01:34:39;4.50;74.50
39655;DHT22;25336;59.944;11.010;2024-03-25T01:37:05;4.50;74.50
39655;DHT22;25336;59.944;11.010;2024-03-25T01:39:31;4.50;74.50
39655;DHT22;25336;59.944;11.010;2024-03-25T01:41:56;5.50;75.30
39655;DHT22;25336;59.944;11.010;2024-03-25T01:44:22;5.50;75.20
39655;DHT22;25336;59.944;11.010;2024-03-25T01:46:47;4.40;74.40
39655;DHT22;25336;59.944;11.010;2024-03-25T01:49:13;4.40;74.20
39655;DHT22;25336;59.944;11.010;2024-03-25T01:51:40;4.40;74.30
39655;DHT22;25336;59.944;11.010;2024-03-25T01:54:06;4.40;74.30
39655;DHT22;25336;59.944;11.010;2024-03-25T01:56:33;4.40;74.20
39655;DHT22;25336;59.944;11.010;2024-03-25T01:59:01;4.40;74.20
39655;DHT22;25336;59.944;11.010;2024-03-25T02:01:27;4.50;74.20
39655;DHT22;25336;59.944;11.010;2024-03-25T02:03:55;4.70;74.30
39655;DHT22;25336;59.944;11.010;2024-03-25T02:06:21;5.60;74.90
39655;DHT22;25336;59.944;11.010;2024-03-25T02:08:48;4.40;74.10
39655;DHT22;25336;59.944;11.010;2024-03-25T02:11:14;4.40;74.00
39655;DHT22;25336;59.944;11.010;2024-03-25T02:13:40;4.40;74.00
39655;DHT22;25336;59.944;11.010;2024-03-25T02:16:06;4.70;74.20
39655;DHT22;25336;59.944;11.010;2024-03-25T02:18:32;5.40;74.60
39655;DHT22;25336;59.944;11.010;2024-03-25T02:20:59;4.30;73.90
39655;DHT22;25336;59.944;11.010;2024-03-25T02:23:25;5.10;74.40
39655;DHT22;25336;59.944;11.010;2024-03-25T02:25:51;4.30;73.90
39655;DHT22;25336;59.944;11.010;2024-03-25T02:28:17;4.30;73.90
39655;DHT22;25336;59.944;11.010;2024-03-25T02:30:43;5.30;74.40
39655;DHT22;25336;59.944;11.010;2024-03-25T02:33:09;4.20;73.70
39655;DHT22;25336;59.944;11.010;2024-03-25T02:35:36;4.30;73.90
39655;DHT22;25336;59.944;11.010;2024-03-25T02:38:04;4.20;73.90
39655;DHT22;25336;59.944;11.010;2024-03-25T02:40:30;4.20;73.90
39655;DHT22;25336;59.944;11.010;2024-03-25T02:42:59;4.20;73.90
39655;DHT22;25336;59.944;11.010;2024-03-25T02:45:25;4.20;73.90
39655;DHT22;25336;59.944;11.010;2024-03-25T02:47:51;4.20;73.90
39655;DHT22;25336;59.944;11.010;2024-03-25T02:50:17;4.20;73.90
39655;DHT22;25336;59.944;11.010;2024-03-25T02:52:42;4.20;73.80
39655;DHT22;25336;59.944;11.010;2024-03-25T02:55:08;4.10;73.90
39655;DHT22;25336;59.944;11.010;2024-03-25T02:57:34;4.10;73.80
39655;DHT22;25336;59.944;11.010;2024-03-25T03:00:00;4.10;73.80
39655;DHT22;25336;59.944;11.010;2024-03-25T03:02:26;4.10;73.80
39655;DHT22;25336;59.944;11.010;2024-03-25T03:04:52;4.10;73.80
39655;DHT22;25336;59.944;11.010;2024-03-25T03:07:17;4.10;73.60
39655;DHT22;25336;59.944;11.010;2024-03-25T03:09:43;4.00;73.50
39655;DHT22;25336;59.944;11.010;2024-03-25T03:12:08;4.10;74.50
39655;DHT22;25336;59.944;11.010;2024-03-25T03:14:34;4.10;73.50
39655;DHT22;25336;59.944;11.010;2024-03-25T03:17:00;4.10;73.70
39655;DHT22;25336;59.944;11.010;2024-03-25T03:19:30;4.00;73.60
39655;DHT22;25336;59.944;11.010;2024-03-25T03:21:56;4.00;73.70
39655;DHT22;25336;59.944;11.010;2024-03-25T03:24:22;4.00;73.80
39655;DHT22;25336;59.944;11.010;2024-03-25T03:26:48;4.50;74.10
39655;DHT22;25336;59.944;11.010;2024-03-25T03:29:15;5.00;74.40
39655;DHT22;25336;59.944;11.010;2024-03-25T03:31:41;4.00;73.80
39655;DHT22;25336;59.944;11.010;2024-03-25T03:34:06;4.00;73.80
39655;DHT22;25336;59.944;11.010;2024-03-25T03:36:32;3.90;73.80
39655;DHT22;25336;59.944;11.010;2024-03-25T03:38:58;4.00;73.90
39655;DHT22;25336;59.944;11.010;2024-03-25T03:41:23;4.80;74.50
39655;DHT22;25336;59.944;11.010;2024-03-25T03:43:49;4.00;73.90
39655;DHT22;25336;59.944;11.010;2024-03-25T03:46:14;4.00;74.00
39655;DHT22;25336;59.944;11.010;2024-03-25T03:48:40;4.00;73.90
39655;DHT22;25336;59.944;11.010;2024-03-25T03:51:07;4.00;73.80
39655;DHT22;25336;59.944;11.010;2024-03-25T03:53:33;4.00;73.80
39655;DHT22;25336;59.944;11.010;2024-03-25T03:56:01;4.00;73.70
39655;DHT22;25336;59.944;11.010;2024-03-25T03:58:30;4.00;73.70
39655;DHT22;25336;59.944;11.010;2024-03-25T04:00:56;4.00;73.80
39655;DHT22;25336;59.944;11.010;2024-03-25T04:03:25;4.00;73.50
39655;DHT22;25336;59.944;11.010;2024-03-25T04:05:51;4.90;74.10
39655;DHT22;25336;59.944;11.010;2024-03-25T04:08:17;4.00;73.40
39655;DHT22;25336;59.944;11.010;2024-03-25T04:10:44;4.00;73.40
39655;DHT22;25336;59.944;11.010;2024-03-25T04:13:10;4.40;73.60
39655;DHT22;25336;59.944;11.010;2024-03-25T04:15:40;4.00;73.30
39655;DHT22;25336;59.944;11.010;2024-03-25T04:18:06;3.90;73.20
39655;DHT22;25336;59.944;11.010;2024-03-25T04:20:39;4.10;73.20
39655;DHT22;25336;59.944;11.010;2024-03-25T04:23:05;4.00;73.00
39655;DHT22;25336;59.944;11.010;2024-03-25T04:25:34;3.90;72.80
39655;DHT22;25336;59.944;11.010;2024-03-25T04:28:03;3.90;72.80
39655;DHT22;25336;59.944;11.010;2024-03-25T04:30:29;3.90;72.70
39655;DHT22;25336;59.944;11.010;2024-03-25T04:32:54;3.90;72.70
39655;DHT22;25336;59.944;11.010;2024-03-25T04:35:20;3.90;72.70
39655;DHT22;25336;59.944;11.010;2024-03-25T04:37:45;3.90;72.50
39655;DHT22;25336;59.944;11.010;2024-03-25T04:40:12;4.20;72.70
39655;DHT22;25336;59.944;11.010;2024-03-25T04:42:40;3.90;72.50
39655;DHT22;25336;59.944;11.010;2024-03-25T04:45:06;4.70;72.90
39655;DHT22;25336;59.944;11.010;2024-03-25T04:47:32;3.80;72.10
39655;DHT22;25336;59.944;11.010;2024-03-25T04:49:57;3.90;72.30
39655;DHT22;25336;59.944;11.010;2024-03-25T04:52:23;3.90;72.00
39655;DHT22;25336;59.944;11.010;2024-03-25T04:54:51;5.10;72.70
39655;DHT22;25336;59.944;11.010;2024-03-25T04:57:17;3.80;71.90
39655;DHT22;25336;59.944;11.010;2024-03-25T04:59:42;5.00;72.50
39655;DHT22;25336;59.944;11.010;2024-03-25T05:02:08;3.80;71.80
39655;DHT22;25336;59.944;11.010;2024-03-25T05:04:34;3.80;71.70
39655;DHT22;25336;59.944;11.010;2024-03-25T05:07:00;4.80;72.40
39655;DHT22;25336;59.944;11.010;2024-03-25T05:09:26;3.80;71.60
39655;DHT22;25336;59.944;11.010;2024-03-25T05:11:52;3.80;72.30
39655;DHT22;25336;59.944;11.010;2024-03-25T05:14:18;3.80;71.60
39655;DHT22;25336;59.944;11.010;2024-03-25T05:16:43;3.80;71.50
39655;DHT22;25336;59.944;11.010;2024-03-25T05:19:09;3.80;71.50
39655;DHT22;25336;59.944;11.010;2024-03-25T05:21:34;3.80;71.10
39655;DHT22;25336;59.944;11.010;2024-03-25T05:24:00;3.80;71.00
39655;DHT22;25336;59.944;11.010;2024-03-25T05:26:26;3.90;70.90
39655;DHT22;25336;59.944;11.010;2024-03-25T05:28:55;5.00;71.60
39655;DHT22;25336;59.944;11.010;2024-03-25T05:31:20;3.80;70.70
39655;DHT22;25336;59.944;11.010;2024-03-25T05:33:46;3.80;70.50
39655;DHT22;25336;59.944;11.010;2024-03-25T05:36:12;4.90;71.10
39655;DHT22;25336;59.944;11.010;2024-03-25T05:38:38;3.80;70.50
39655;DHT22;25336;59.944;11.010;2024-03-25T05:41:03;3.80;70.40
39655;DHT22;25336;59.944;11.010;2024-03-25T05:43:29;3.70;70.20
39655;DHT22;25336;59.944;11.010;2024-03-25T05:45:55;3.80;70.30
39655;DHT22;25336;59.944;11.010;2024-03-25T05:48:21;3.80;71.00
39655;DHT22;25336;59.944;11.010;2024-03-25T05:51:04;3.80;70.20
39655;DHT22;25336;59.944;11.010;2024-03-25T05:53:33;3.80;69.90
39655;DHT22;25336;59.944;11.010;2024-03-25T05:55:59;4.60;70.40
39655;DHT22;25336;59.944;11.010;2024-03-25T05:58:25;4.30;70.20
39655;DHT22;25336;59.944;11.010;2024-03-25T06:00:51;4.40;70.10
39655;DHT22;25336;59.944;11.010;2024-03-25T06:03:22;3.80;69.90
39655;DHT22;25336;59.944;11.010;2024-03-25T06:05:48;3.70;69.70
39655;DHT22;25336;59.944;11.010;2024-03-25T06:08:15;4.40;70.20
39655;DHT22;25336;59.944;11.010;2024-03-25T06:10:47;4.90;70.60
39655;DHT22;25336;59.944;11.010;2024-03-25T06:13:12;3.80;70.00
39655;DHT22;25336;59.944;11.010;2024-03-25T06:15:38;3.80;69.80
39655;DHT22;25336;59.944;11.010;2024-03-25T06:18:04;4.10;70.00
39655;DHT22;25336;59.944;11.010;2024-03-25T06:20:29;5.00;70.60
39655;DHT22;25336;59.944;11.010;2024-03-25T06:22:55;2.50;69.00
39655;DHT22;25336;59.944;11.010;2024-03-25T06:25:20;3.80;69.70
39655;DHT22;25336;59.944;11.010;2024-03-25T06:27:46;3.80;69.70
39655;DHT22;25336;59.944;11.010;2024-03-25T06:30:12;3.80;69.70
39655;DHT22;25336;59.944;11.010;2024-03-25T06:32:56;3.80;69.60
39655;DHT22;25336;59.944;11.010;2024-03-25T06:35:44;3.90;69.50
39655;DHT22;25336;59.944;11.010;2024-03-25T06:38:11;3.60;69.20
39655;DHT22;25336;59.944;11.010;2024-03-25T06:40:38;3.90;69.40
39655;DHT22;25336;59.944;11.010;2024-03-25T06:43:04;3.90;69.10
39655;DHT22;25336;59.944;11.010;2024-03-25T06:45:30;3.90;68.60
39655;DHT22;25336;59.944;11.010;2024-03-25T06:47:56;4.80;69.40
39655;DHT22;25336;59.944;11.010;2024-03-25T06:50:23;3.90;68.70
39655;DHT22;25336;59.944;11.010;2024-03-25T06:52:48;4.40;69.00
39655;DHT22;25336;59.944;11.010;2024-03-25T06:55:14;3.90;68.60
39655;DHT22;25336;59.944;11.010;2024-03-25T06:57:40;3.90;68.60
39655;DHT22;25336;59.944;11.010;2024-03-25T07:00:08;3.90;68.40
39655;DHT22;25336;59.944;11.010;2024-03-25T07:02:39;3.90;68.30
39655;DHT22;25336;59.944;11.010;2024-03-25T07:05:05;4.90;68.90
39655;DHT22;25336;59.944;11.010;2024-03-25T07:07:30;3.90;68.20
39655;DHT22;25336;59.944;11.010;2024-03-25T07:09:57;5.40;69.10
39655;DHT22;25336;59.944;11.010;2024-03-25T07:12:22;3.80;68.30
39655;DHT22;25336;59.944;11.010;2024-03-25T07:14:48;3.80;68.20
39655;DHT22;25336;59.944;11.010;2024-03-25T07:17:15;4.20;68.50
39655;DHT22;25336;59.944;11.010;2024-03-25T07:19:40;3.80;68.40
39655;DHT22;25336;59.944;11.010;2024-03-25T07:22:06;3.80;68.40
39655;DHT22;25336;59.944;11.010;2024-03-25T07:24:32;3.80;68.40
39655;DHT22;25336;59.944;11.010;2024-03-25T07:26:58;3.80;68.50
39655;DHT22;25336;59.944;11.010;2024-03-25T07:29:23;3.80;68.50
39655;DHT22;25336;59.944;11.010;2024-03-25T07:31:49;3.80;68.30
39655;DHT22;25336;59.944;11.010;2024-03-25T07:34:14;3.80;68.40
39655;DHT22;25336;59.944;11.010;2024-03-25T07:36:40;3.80;67.90
39655;DHT22;25336;59.944;11.010;2024-03-25T07:39:06;3.80;68.00
39655;DHT22;25336;59.944;11.010;2024-03-25T07:41:31;3.80;68.30
39655;DHT22;25336;59.944;11.010;2024-03-25T07:43:57;3.90;67.70
39655;DHT22;25336;59.944;11.010;2024-03-25T07:46:23;3.80;67.70
39655;DHT22;25336;59.944;11.010;2024-03-25T07:48:48;3.80;67.80
39655;DHT22;25336;59.944;11.010;2024-03-25T07:51:14;3.70;67.60
39655;DHT22;25336;59.944;11.010;2024-03-25T07:53:40;3.70;67.60
39655;DHT22;25336;59.944;11.010;2024-03-25T07:56:05;3.70;67.90
39655;DHT22;25336;59.944;11.010;2024-03-25T07:58:31;3.70;67.50
39655;DHT22;25336;59.944;11.010;2024-03-25T08:00:56;3.70;67.60
39655;DHT22;25336;59.944;11.010;2024-03-25T08:03:22;3.60;67.60
39655;DHT22;25336;59.944;11.010;2024-03-25T08:05:50;3.70;67.80
39655;DHT22;25336;59.944;11.010;2024-03-25T08:08:16;4.10;68.10
39655;DHT22;25336;59.944;11.010;2024-03-25T08:10:41;3.70;68.10
39655;DHT22;25336;59.944;11.010;2024-03-25T08:13:07;3.70;67.90
39655;DHT22;25336;59.944;11.010;2024-03-25T08:15:33;3.70;68.00
39655;DHT22;25336;59.944;11.010;2024-03-25T08:17:58;5.50;69.10
39655;DHT22;25336;59.944;11.010;2024-03-25T08:20:24;3.70;67.90
39655;DHT22;25336;59.944;11.010;2024-03-25T08:22:49;3.70;67.70
39655;DHT22;25336;59.944;11.010;2024-03-25T08:25:15;5.20;68.60
39655;DHT22;25336;59.944;11.010;2024-03-25T08:27:41;3.70;67.80
39655;DHT22;25336;59.944;11.010;2024-03-25T08:30:07;3.70;67.80
39655;DHT22;25336;59.944;11.010;2024-03-25T08:32:33;3.70;67.80
39655;DHT22;25336;59.944;11.010;2024-03-25T08:34:58;4.10;68.00
39655;DHT22;25336;59.944;11.010;2024-03-25T08:37:24;3.70;67.80
39655;DHT22;25336;59.944;11.010;2024-03-25T08:39:50;3.70;67.90
39655;DHT22;25336;59.944;11.010;2024-03-25T08:42:15;4.70;68.50
39655;DHT22;25336;59.944;11.010;2024-03-25T08:44:41;3.80;68.00
39655;DHT22;25336;59.944;11.010;2024-03-25T08:47:07;3.80;68.10
39655;DHT22;25336;59.944;11.010;2024-03-25T08:49:32;4.70;68.80
39655;DHT22;25336;59.944;11.010;2024-03-25T08:51:58;3.80;68.20
39655;DHT22;25336;59.944;11.010;2024-03-25T08:54:23;3.80;68.20
39655;DHT22;25336;59.944;11.010;2024-03-25T08:56:49;3.80;68.20
39655;DHT22;25336;59.944;11.010;2024-03-25T08:59:15;3.80;68.20
39655;DHT22;25336;59.944;11.010;2024-03-25T09:01:40;3.90;68.30
39655;DHT22;25336;59.944;11.010;2024-03-25T09:04:06;3.90;68.20
39655;DHT22;25336;59.944;11.010;2024-03-25T09:06:32;4.50;68.30
39655;DHT22;25336;59.944;11.010;2024-03-25T09:08:58;3.90;68.00
39655;DHT22;25336;59.944;11.010;2024-03-25T09:11:42;3.90;68.10
39655;DHT22;25336;59.944;11.010;2024-03-25T09:14:10;3.90;68.30
39655;DHT22;25336;59.944;11.010;2024-03-25T09:16:37;3.90;68.30
39655;DHT22;25336;59.944;11.010;2024-03-25T09:19:04;4.00;67.90
39655;DHT22;25336;59.944;11.010;2024-03-25T09:21:29;4.00;68.00
39655;DHT22;25336;59.944;11.010;2024-03-25T09:23:55;4.00;68.10
39655;DHT22;25336;59.944;11.010;2024-03-25T09:26:23;4.00;68.20
39655;DHT22;25336;59.944;11.010;2024-03-25T09:28:49;4.00;68.10
39655;DHT22;25336;59.944;11.010;2024-03-25T09:31:15;4.00;68.20
39655;DHT22;25336;59.944;11.010;2024-03-25T09:33:40;4.00;68.30
39655;DHT22;25336;59.944;11.010;2024-03-25T09:36:06;4.00;68.30
39655;DHT22;25336;59.944;11.010;2024-03-25T09:38:31;4.00;69.20
39655;DHT22;25336;59.944;11.010;2024-03-25T09:40:57;4.00;68.30
39655;DHT22;25336;59.944;11.010;2024-03-25T09:43:53;4.40;68.70
39655;DHT22;25336;59.944;11.010;2024-03-25T09:46:16;3.90;68.60
39655;DHT22;25336;59.944;11.010;2024-03-25T09:48:42;4.60;69.00
39655;DHT22;25336;59.944;11.010;2024-03-25T09:51:09;4.00;69.00
39655;DHT22;25336;59.944;11.010;2024-03-25T09:53:41;4.00;69.20
39655;DHT22;25336;59.944;11.010;2024-03-25T09:56:07;5.50;70.10
39655;DHT22;25336;59.944;11.010;2024-03-25T09:58:34;4.00;69.10
39655;DHT22;25336;59.944;11.010;2024-03-25T10:00:59;5.00;69.70
39655;DHT22;25336;59.944;11.010;2024-03-25T10:03:25;4.00;69.50
39655;DHT22;25336;59.944;11.010;2024-03-25T10:05:51;4.80;70.00
39655;DHT22;25336;59.944;11.010;2024-03-25T10:08:23;4.00;69.40
39655;DHT22;25336;59.944;11.010;2024-03-25T10:10:51;4.10;69.50
39655;DHT22;25336;59.944;11.010;2024-03-25T10:13:17;4.10;69.40
39655;DHT22;25336;59.944;11.010;2024-03-25T10:15:43;4.10;69.50
39655;DHT22;25336;59.944;11.010;2024-03-25T10:18:11;4.20;69.40
39655;DHT22;25336;59.944;11.010;2024-03-25T10:20:37;4.20;69.50
39655;DHT22;25336;59.944;11.010;2024-03-25T10:23:03;4.20;69.60
39655;DHT22;25336;59.944;11.010;2024-03-25T10:25:36;4.20;69.70
39655;DHT22;25336;59.944;11.010;2024-03-25T10:28:05;4.30;70.00
39655;DHT22;25336;59.944;11.010;2024-03-25T10:30:31;4.30;69.80
39655;DHT22;25336;59.944;11.010;2024-03-25T10:33:04;4.50;70.00
39655;DHT22;25336;59.944;11.010;2024-03-25T10:35:34;4.40;70.00
39655;DHT22;25336;59.944;11.010;2024-03-25T10:38:02;4.40;69.90
39655;DHT22;25336;59.944;11.010;2024-03-25T10:40:35;4.50;69.80
39655;DHT22;25336;59.944;11.010;2024-03-25T10:43:04;4.70;69.60
39655;DHT22;25336;59.944;11.010;2024-03-25T10:45:33;4.50;69.30
39655;DHT22;25336;59.944;11.010;2024-03-25T10:48:03;4.50;69.40
39655;DHT22;25336;59.944;11.010;2024-03-25T10:50:29;3.50;68.40
39655;DHT22;25336;59.944;11.010;2024-03-25T10:52:57;5.30;69.30
39655;DHT22;25336;59.944;11.010;2024-03-25T10:55:24;5.80;69.40
39655;DHT22;25336;59.944;11.010;2024-03-25T10:57:52;4.60;68.30
39655;DHT22;25336;59.944;11.010;2024-03-25T11:00:22;6.00;68.80
39655;DHT22;25336;59.944;11.010;2024-03-25T11:02:51;4.60;68.20
39655;DHT22;25336;59.944;11.010;2024-03-25T11:05:18;4.60;68.30
39655;DHT22;25336;59.944;11.010;2024-03-25T11:07:44;4.60;68.50
39655;DHT22;25336;59.944;11.010;2024-03-25T11:10:11;4.60;68.70
39655;DHT22;25336;59.944;11.010;2024-03-25T11:12:40;4.60;68.60
39655;DHT22;25336;59.944;11.010;2024-03-25T11:15:08;5.40;69.20
39655;DHT22;25336;59.944;11.010;2024-03-25T11:17:35;4.70;68.70
39655;DHT22;25336;59.944;11.010;2024-03-25T11:20:15;4.80;68.60
39655;DHT22;25336;59.944;11.010;2024-03-25T11:22:51;4.80;68.00
39655;DHT22;25336;59.944;11.010;2024-03-25T11:25:19;4.80;68.00
39655;DHT22;25336;59.944;11.010;2024-03-25T11:27:45;5.90;68.70
39655;DHT22;25336;59.944;11.010;2024-03-25T11:30:12;4.80;67.50
39655;DHT22;25336;59.944;11.010;2024-03-25T11:32:52;4.70;67.70
39655;DHT22;25336;59.944;11.010;2024-03-25T11:35:18;4.70;68.00
39655;DHT22;25336;59.944;11.010;2024-03-25T11:37:44;5.90;69.10
39655;DHT22;25336;59.944;11.010;2024-03-25T11:40:11;4.80;68.70
39655;DHT22;25336;59.944;11.010;2024-03-25T11:42:41;4.80;68.60
39655;DHT22;25336;59.944;11.010;2024-03-25T11:45:14;4.80;68.50
39655;DHT22;25336;59.944;11.010;2024-03-25T11:47:44;4.80;68.50
39655;DHT22;25336;59.944;11.010;2024-03-25T11:50:15;4.90;68.30
39655;DHT22;25336;59.944;11.010;2024-03-25T11:52:41;4.80;68.10
39655;DHT22;25336;59.944;11.010;2024-03-25T11:55:07;4.80;68.30
39655;DHT22;25336;59.944;11.010;2024-03-25T11:57:37;4.80;68.50
39655;DHT22;25336;59.944;11.010;2024-03-25T12:00:04;4.80;69.00
39655;DHT22;25336;59.944;11.010;2024-03-25T12:02:36;4.80;69.20
39655;DHT22;25336;59.944;11.010;2024-03-25T12:05:02;4.80;69.30
39655;DHT22;25336;59.944;11.010;2024-03-25T12:07:27;4.90;69.50
39655;DHT22;25336;59.944;11.010;2024-03-25T12:09:53;4.90;69.40
39655;DHT22;25336;59.944;11.010;2024-03-25T12:12:37;3.90;68.80
39655;DHT22;25336;59.944;11.010;2024-03-25T12:15:05;5.00;69.50
39655;DHT22;25336;59.944;11.010;2024-03-25T12:17:33;5.00;69.50
39655;DHT22;25336;59.944;11.010;2024-03-25T12:20:06;6.50;70.40
39655;DHT22;25336;59.944;11.010;2024-03-25T12:22:35;5.10;69.50
39655;DHT22;25336;59.944;11.010;2024-03-25T12:25:03;5.20;69.60
39655;DHT22;25336;59.944;11.010;2024-03-25T12:27:33;5.20;69.30
39655;DHT22;25336;59.944;11.010;2024-03-25T12:30:08;5.20;69.00
39655;DHT22;25336;59.944;11.010;2024-03-25T12:32:39;5.30;68.90
39655;DHT22;25336;59.944;11.010;2024-03-25T12:35:11;5.30;69.80
39655;DHT22;25336;59.944;11.010;2024-03-25T12:37:37;5.20;69.00
39655;DHT22;25336;59.944;11.010;2024-03-25T12:40:05;5.20;69.00
39655;DHT22;25336;59.944;11.010;2024-03-25T12:42:34;5.30;69.00
39655;DHT22;25336;59.944;11.010;2024-03-25T12:45:00;6.50;69.70
39655;DHT22;25336;59.944;11.010;2024-03-25T12:47:26;5.30;68.60
39655;DHT22;25336;59.944;11.010;2024-03-25T12:49:52;5.30;68.70
39655;DHT22;25336;59.944;11.010;2024-03-25T12:52:18;5.60;68.90
39655;DHT22;25336;59.944;11.010;2024-03-25T12:54:43;5.20;68.90
39655;DHT22;25336;59.944;11.010;2024-03-25T12:57:10;5.30;69.00
39655;DHT22;25336;59.944;11.010;2024-03-25T12:59:36;5.20;69.30
39655;DHT22;25336;59.944;11.010;2024-03-25T13:02:02;5.20;69.40
39655;DHT22;25336;59.944;11.010;2024-03-25T13:04:28;5.30;69.90
39655;DHT22;25336;59.944;11.010;2024-03-25T13:06:53;5.30;70.00
39655;DHT22;25336;59.944;11.010;2024-03-25T13:09:19;5.30;70.00
39655;DHT22;25336;59.944;11.010;2024-03-25T13:11:45;4.50;69.30
39655;DHT22;25336;59.944;11.010;2024-03-25T13:14:12;5.40;69.90
39655;DHT22;25336;59.944;11.010;2024-03-25T13:16:39;5.40;69.70
39655;DHT22;25336;59.944;11.010;2024-03-25T13:19:05;5.40;69.40
39655;DHT22;25336;59.944;11.010;2024-03-25T13:21:31;5.80;70.10
39655;DHT22;25336;59.944;11.010;2024-03-25T13:23:58;5.50;69.10
39655;DHT22;25336;59.944;11.010;2024-03-25T13:26:23;5.50;69.10
39655;DHT22;25336;59.944;11.010;2024-03-25T13:28:49;5.40;69.20
39655;DHT22;25336;59.944;11.010;2024-03-25T13:31:15;6.40;69.70
39655;DHT22;25336;59.944;11.010;2024-03-25T13:33:41;5.40;69.10
39655;DHT22;25336;59.944;11.010;2024-03-25T13:36:07;5.40;69.20
39655;DHT22;25336;59.944;11.010;2024-03-25T13:38:33;5.40;68.90
39655;DHT22;25336;59.944;11.010;2024-03-25T13:41:02;5.40;68.90
39655;DHT22;25336;59.944;11.010;2024-03-25T13:43:28;5.40;68.90
39655;DHT22;25336;59.944;11.010;2024-03-25T13:45:54;5.30;68.80
39655;DHT22;25336;59.944;11.010;2024-03-25T13:48:19;5.30;68.90
39655;DHT22;25336;59.944;11.010;2024-03-25T13:50:45;5.30;69.10
39655;DHT22;25336;59.944;11.010;2024-03-25T13:53:11;5.20;69.00
39655;DHT22;25336;59.944;11.010;2024-03-25T13:55:37;6.80;70.20
39655;DHT22;25336;59.944;11.010;2024-03-25T13:58:03;5.20;69.20
39655;DHT22;25336;59.944;11.010;2024-03-25T14:00:31;5.20;69.30
39655;DHT22;25336;59.944;11.010;2024-03-25T14:02:59;5.10;69.40
39655;DHT22;25336;59.944;11.010;2024-03-25T14:05:25;5.10;69.40
39655;DHT22;25336;59.944;11.010;2024-03-25T14:07:51;5.10;69.50
39655;DHT22;25336;59.944;11.010;2024-03-25T14:10:17;5.10;69.70
39655;DHT22;25336;59.944;11.010;2024-03-25T14:12:44;6.10;70.40
39655;DHT22;25336;59.944;11.010;2024-03-25T14:15:09;5.10;69.80
39655;DHT22;25336;59.944;11.010;2024-03-25T14:17:35;6.20;70.70
39655;DHT22;25336;59.944;11.010;2024-03-25T14:20:01;5.70;70.40
39655;DHT22;25336;59.944;11.010;2024-03-25T14:22:30;6.20;71.00
39655;DHT22;25336;59.944;11.010;2024-03-25T14:24:59;5.00;70.00
39655;DHT22;25336;59.944;11.010;2024-03-25T14:27:25;6.10;70.50
39655;DHT22;25336;59.944;11.010;2024-03-25T14:29:51;5.00;70.10
39655;DHT22;25336;59.944;11.010;2024-03-25T14:32:20;5.40;70.70
39655;DHT22;25336;59.944;11.010;2024-03-25T14:34:47;4.90;70.60
39655;DHT22;25336;59.944;11.010;2024-03-25T14:37:13;4.20;70.30
39655;DHT22;25336;59.944;11.010;2024-03-25T14:39:39;5.70;71.50
39655;DHT22;25336;59.944;11.010;2024-03-25T14:42:05;4.90;71.10
39655;DHT22;25336;59.944;11.010;2024-03-25T14:44:31;5.00;71.20
39655;DHT22;25336;59.944;11.010;2024-03-25T14:46:56;5.00;71.00
39655;DHT22;25336;59.944;11.010;2024-03-25T14:49:25;5.00;71.10
39655;DHT22;25336;59.944;11.010;2024-03-25T14:51:50;5.00;71.00
39655;DHT22;25336;59.944;11.010;2024-03-25T14:54:18;6.70;72.10
39655;DHT22;25336;59.944;11.010;2024-03-25T14:56:44;5.00;70.90
39655;DHT22;25336;59.944;11.010;2024-03-25T14:59:10;6.30;71.80
39655;DHT22;25336;59.944;11.010;2024-03-25T15:01:36;5.00;71.00
39655;DHT22;25336;59.944;11.010;2024-03-25T15:04:03;4.90;70.90
39655;DHT22;25336;59.944;11.010;2024-03-25T15:06:29;5.00;71.10
39655;DHT22;25336;59.944;11.010;2024-03-25T15:08:59;4.90;71.10
39655;DHT22;25336;59.944;11.010;2024-03-25T15:11:26;4.90;71.00
39655;DHT22;25336;59.944;11.010;2024-03-25T15:13:52;4.90;70.90
39655;DHT22;25336;59.944;11.010;2024-03-25T15:16:18;4.90;70.90
39655;DHT22;25336;59.944;11.010;2024-03-25T15:18:44;4.80;70.70
39655;DHT22;25336;59.944;11.010;2024-03-25T15:21:10;5.10;71.00
39655;DHT22;25336;59.944;11.010;2024-03-25T15:23:36;4.90;71.00
39655;DHT22;25336;59.944;11.010;2024-03-25T15:26:02;4.70;71.10
39655;DHT22;25336;59.944;11.010;2024-03-25T15:28:28;6.00;72.00